sensor_id;sensor_type;location;lat;lon;timestamp;pressure;altitude;pressure_sealevel;temperature;humidity
43745;BME280;29359;53.048;8.732;2023-01-29T00:00:51;102926.63;;;1.41;91.42
43745;BME280;29359;53.048;8.732;2023-01-29T00:02:53;102924.97;;;1.43;91.38
43745;BME280;29359;53.048;8.732;2023-01-29T00:04:55;102927.50;;;1.41;91.31
43745;BME280;29359;53.048;8.732;2023-01-29T00:06:59;102922.38;;;1.43;91.41
43745;BME280;29359;53.048;8.732;2023-01-29T00:09:01;102917.09;;;1.41;91.20
43745;BME280;29359;53.048;8.732;2023-01-29T00:11:06;102924.97;;;1.43;91.63
43745;BME280;29359;53.048;8.732;2023-01-29T00:13:08;102920.59;;;1.42;91.34
43745;BME280;29359;53.048;8.732;2023-01-29T00:15:10;102921.47;;;1.42;91.31
43745;BME280;29359;53.048;8.732;2023-01-29T00:17:11;102913.66;;;1.42;91.47
43745;BME280;29359;53.048;8.732;2023-01-29T00:19:13;102917.16;;;1.43;91.37
43745;BME280;29359;53.048;8.732;2023-01-29T00:21:17;102914.56;;;1.43;90.69
43745;BME280;29359;53.048;8.732;2023-01-29T00:23:19;102916.28;;;1.42;91.45
43745;BME280;29359;53.048;8.732;2023-01-29T00:25:20;102918.88;;;1.42;90.92
43745;BME280;29359;53.048;8.732;2023-01-29T00:27:22;102915.38;;;1.42;91.04
43745;BME280;29359;53.048;8.732;2023-01-29T00:29:23;102910.19;;;1.42;91.61
43745;BME280;29359;53.048;8.732;2023-01-29T00:31:25;102899.69;;;1.40;91.27
43745;BME280;29359;53.048;8.732;2023-01-29T00:33:28;102898.81;;;1.40;91.36
43745;BME280;29359;53.048;8.732;2023-01-29T00:35:30;102890.19;;;1.41;91.09
43745;BME280;29359;53.048;8.732;2023-01-29T00:37:32;102888.47;;;1.41;91.10
43745;BME280;29359;53.048;8.732;2023-01-29T00:39:33;102878.19;;;1.44;90.79
43745;BME280;29359;53.048;8.732;2023-01-29T00:41:48;102874.63;;;1.42;90.89
43745;BME280;29359;53.048;8.732;2023-01-29T00:44:08;102866.63;;;1.38;91.04
43745;BME280;29359;53.048;8.732;2023-01-29T00:46:28;102869.09;;;1.35;90.75
43745;BME280;29359;53.048;8.732;2023-01-29T00:48:29;102862.06;;;1.32;90.65
43745;BME280;29359;53.048;8.732;2023-01-29T00:50:31;102857.47;;;1.26;91.21
43745;BME280;29359;53.048;8.732;2023-01-29T00:52:33;102859.88;;;1.22;90.71
43745;BME280;29359;53.048;8.732;2023-01-29T00:54:36;102858.78;;;1.17;91.19
43745;BME280;29359;53.048;8.732;2023-01-29T00:56:38;102869.94;;;1.14;90.72
43745;BME280;29359;53.048;8.732;2023-01-29T00:58:39;102874.06;;;1.09;91.69
43745;BME280;29359;53.048;8.732;2023-01-29T01:00:41;102885.38;;;1.10;91.66
43745;BME280;29359;53.048;8.732;2023-01-29T01:02:42;102887.16;;;1.11;91.55
43745;BME280;29359;53.048;8.732;2023-01-29T01:05:03;102887.22;;;1.12;91.79
43745;BME280;29359;53.048;8.732;2023-01-29T01:07:06;102878.66;;;1.15;92.04
43745;BME280;29359;53.048;8.732;2023-01-29T01:09:09;102886.66;;;1.19;92.10
43745;BME280;29359;53.048;8.732;2023-01-29T01:11:29;102890.25;;;1.23;91.92
43745;BME280;29359;53.048;8.732;2023-01-29T01:13:32;102890.31;;;1.24;91.53
43745;BME280;29359;53.048;8.732;2023-01-29T01:15:37;102894.78;;;1.27;91.93
43745;BME280;29359;53.048;8.732;2023-01-29T01:17:38;102898.31;;;1.29;91.60
43745;BME280;29359;53.048;8.732;2023-01-29T01:19:40;102906.22;;;1.31;92.11
43745;BME280;29359;53.048;8.732;2023-01-29T01:21:42;102901.97;;;1.33;91.92
43745;BME280;29359;53.048;8.732;2023-01-29T01:23:48;102901.09;;;1.32;91.40
43745;BME280;29359;53.048;8.732;2023-01-29T01:25:52;102900.19;;;1.32;91.60
43745;BME280;29359;53.048;8.732;2023-01-29T01:27:57;102903.69;;;1.32;91.87
43745;BME280;29359;53.048;8.732;2023-01-29T01:29:58;102910.81;;;1.36;91.61
43745;BME280;29359;53.048;8.732;2023-01-29T01:32:00;102903.94;;;1.38;92.02
43745;BME280;29359;53.048;8.732;2023-01-29T01:34:02;102900.66;;;1.42;91.80
43745;BME280;29359;53.048;8.732;2023-01-29T01:36:04;102902.50;;;1.45;91.72
43745;BME280;29359;53.048;8.732;2023-01-29T01:38:09;102900.03;;;1.48;91.93
43745;BME280;29359;53.048;8.732;2023-01-29T01:40:17;102897.47;;;1.49;91.62
43745;BME280;29359;53.048;8.732;2023-01-29T01:42:19;102897.59;;;1.52;91.03
43745;BME280;29359;53.048;8.732;2023-01-29T01:44:59;102896.84;;;1.55;91.28
43745;BME280;29359;53.048;8.732;2023-01-29T01:47:01;102890.88;;;1.57;91.30
43745;BME280;29359;53.048;8.732;2023-01-29T01:49:11;102892.66;;;1.58;91.34
43745;BME280;29359;53.048;8.732;2023-01-29T01:51:17;102892.78;;;1.62;91.29
43745;BME280;29359;53.048;8.732;2023-01-29T01:53:22;102889.41;;;1.64;90.96
43745;BME280;29359;53.048;8.732;2023-01-29T01:55:27;102893.84;;;1.67;90.58
43745;BME280;29359;53.048;8.732;2023-01-29T01:57:30;102890.41;;;1.68;90.52
43745;BME280;29359;53.048;8.732;2023-01-29T01:59:32;102887.06;;;1.70;90.71
43745;BME280;29359;53.048;8.732;2023-01-29T02:01:34;102897.59;;;1.73;90.58
43745;BME280;29359;53.048;8.732;2023-01-29T02:03:43;102900.28;;;1.75;90.54
43745;BME280;29359;53.048;8.732;2023-01-29T02:06:07;102886.44;;;1.76;89.84
43745;BME280;29359;53.048;8.732;2023-01-29T02:08:38;102890.88;;;1.78;89.67
43745;BME280;29359;53.048;8.732;2023-01-29T02:11:01;102894.31;;;1.77;89.62
43745;BME280;29359;53.048;8.732;2023-01-29T02:13:04;102887.47;;;1.79;89.54
43745;BME280;29359;53.048;8.732;2023-01-29T02:15:06;102887.53;;;1.81;89.27
43745;BME280;29359;53.048;8.732;2023-01-29T02:17:16;102885.81;;;1.81;89.45
43745;BME280;29359;53.048;8.732;2023-01-29T02:21:51;102887.53;;;1.81;89.34
43745;BME280;29359;53.048;8.732;2023-01-29T02:26:48;102886.69;;;1.82;88.92
43745;BME280;29359;53.048;8.732;2023-01-29T02:28:58;102898.81;;;1.81;89.22
43745;BME280;29359;53.048;8.732;2023-01-29T02:31:36;102892.91;;;1.85;89.10
43745;BME280;29359;53.048;8.732;2023-01-29T02:33:58;102898.13;;;1.85;88.79
43745;BME280;29359;53.048;8.732;2023-01-29T02:38:40;102886.81;;;1.85;89.19
43745;BME280;29359;53.048;8.732;2023-01-29T02:40:54;102884.22;;;1.85;89.41
43745;BME280;29359;53.048;8.732;2023-01-29T02:43:07;102887.75;;;1.87;88.82
43745;BME280;29359;53.048;8.732;2023-01-29T02:45:30;102889.53;;;1.88;88.62
43745;BME280;29359;53.048;8.732;2023-01-29T02:47:41;102886.94;;;1.88;88.67
43745;BME280;29359;53.048;8.732;2023-01-29T02:49:50;102880.06;;;1.90;89.00
43745;BME280;29359;53.048;8.732;2023-01-29T02:52:22;102872.31;;;1.92;88.57
43745;BME280;29359;53.048;8.732;2023-01-29T02:59:20;102861.97;;;1.93;88.64
43745;BME280;29359;53.048;8.732;2023-01-29T03:01:35;102850.72;;;1.94;88.45
43745;BME280;29359;53.048;8.732;2023-01-29T03:03:42;102848.94;;;1.93;88.75
43745;BME280;29359;53.048;8.732;2023-01-29T03:05:59;102844.59;;;1.94;88.87
43745;BME280;29359;53.048;8.732;2023-01-29T03:08:06;102846.44;;;1.96;88.90
43745;BME280;29359;53.048;8.732;2023-01-29T03:10:22;102830.88;;;1.98;89.01
43745;BME280;29359;53.048;8.732;2023-01-29T03:12:26;102831.75;;;1.98;88.97
43745;BME280;29359;53.048;8.732;2023-01-29T03:14:36;102829.16;;;1.98;89.02
43745;BME280;29359;53.048;8.732;2023-01-29T03:16:59;102823.13;;;1.99;89.24
43745;BME280;29359;53.048;8.732;2023-01-29T03:19:29;102816.19;;;2.00;89.43
43745;BME280;29359;53.048;8.732;2023-01-29T03:21:40;102806.72;;;2.02;89.13
43745;BME280;29359;53.048;8.732;2023-01-29T03:24:03;102800.56;;;2.00;89.27
43745;BME280;29359;53.048;8.732;2023-01-29T03:26:24;102795.25;;;1.97;89.24
43745;BME280;29359;53.048;8.732;2023-01-29T03:28:46;102788.25;;;1.96;89.17
43745;BME280;29359;53.048;8.732;2023-01-29T03:31:09;102777.66;;;1.91;89.38
43745;BME280;29359;53.048;8.732;2023-01-29T03:33:34;102786.31;;;1.90;89.42
43745;BME280;29359;53.048;8.732;2023-01-29T03:35:46;102785.31;;;1.86;89.63
43745;BME280;29359;53.048;8.732;2023-01-29T03:37:50;102779.91;;;1.82;89.58
43745;BME280;29359;53.048;8.732;2023-01-29T03:39:51;102774.59;;;1.79;89.91
43745;BME280;29359;53.048;8.732;2023-01-29T03:47:09;102760.50;;;1.74;89.87
43745;BME280;29359;53.048;8.732;2023-01-29T03:49:27;102759.53;;;1.72;90.40
43745;BME280;29359;53.048;8.732;2023-01-29T03:51:42;102759.47;;;1.70;90.26
43745;BME280;29359;53.048;8.732;2023-01-29T03:54:04;102762.91;;;1.69;90.20
43745;BME280;29359;53.048;8.732;2023-01-29T03:58:23;102767.09;;;1.66;90.48
43745;BME280;29359;53.048;8.732;2023-01-29T04:00:36;102762.78;;;1.66;90.45
43745;BME280;29359;53.048;8.732;2023-01-29T04:02:47;102762.72;;;1.65;90.58
43745;BME280;29359;53.048;8.732;2023-01-29T04:04:56;102753.97;;;1.63;90.66
43745;BME280;29359;53.048;8.732;2023-01-29T04:07:18;102752.31;;;1.65;90.75
43745;BME280;29359;53.048;8.732;2023-01-29T04:09:38;102750.53;;;1.64;90.40
43745;BME280;29359;53.048;8.732;2023-01-29T04:11:44;102740.94;;;1.63;90.68
43745;BME280;29359;53.048;8.732;2023-01-29T04:13:48;102743.44;;;1.60;90.63
43745;BME280;29359;53.048;8.732;2023-01-29T04:15:57;102746.88;;;1.58;90.77
43745;BME280;29359;53.048;8.732;2023-01-29T04:18:00;102749.34;;;1.55;91.06
43745;BME280;29359;53.048;8.732;2023-01-29T04:20:02;102749.34;;;1.55;91.31
43745;BME280;29359;53.048;8.732;2023-01-29T04:22:30;102745.88;;;1.55;91.14
43745;BME280;29359;53.048;8.732;2023-01-29T04:24:32;102751.84;;;1.52;90.81
43745;BME280;29359;53.048;8.732;2023-01-29T04:29:44;102757.69;;;1.47;91.35
43745;BME280;29359;53.048;8.732;2023-01-29T04:31:46;102752.44;;;1.45;91.77
43745;BME280;29359;53.048;8.732;2023-01-29T04:38:59;102754.97;;;1.44;91.98
43745;BME280;29359;53.048;8.732;2023-01-29T04:41:23;102744.56;;;1.44;91.65
43745;BME280;29359;53.048;8.732;2023-01-29T04:43:42;102748.88;;;1.43;92.09
43745;BME280;29359;53.048;8.732;2023-01-29T04:46:17;102739.34;;;1.44;91.89
43745;BME280;29359;53.048;8.732;2023-01-29T04:50:32;102747.16;;;1.44;92.21
43745;BME280;29359;53.048;8.732;2023-01-29T04:55:07;102754.22;;;1.46;92.30
43745;BME280;29359;53.048;8.732;2023-01-29T04:57:15;102740.25;;;1.44;91.98
43745;BME280;29359;53.048;8.732;2023-01-29T04:59:26;102739.41;;;1.45;92.07
43745;BME280;29359;53.048;8.732;2023-01-29T05:01:32;102749.81;;;1.45;92.20
43745;BME280;29359;53.048;8.732;2023-01-29T05:03:36;102756.03;;;1.49;92.12
43745;BME280;29359;53.048;8.732;2023-01-29T05:05:42;102763.03;;;1.50;92.42
43745;BME280;29359;53.048;8.732;2023-01-29T05:07:45;102763.06;;;1.51;92.31
43745;BME280;29359;53.048;8.732;2023-01-29T05:09:48;102760.53;;;1.53;92.62
43745;BME280;29359;53.048;8.732;2023-01-29T05:11:51;102762.38;;;1.55;92.65
43745;BME280;29359;53.048;8.732;2023-01-29T05:13:53;102756.47;;;1.60;92.64
43745;BME280;29359;53.048;8.732;2023-01-29T05:16:03;102745.28;;;1.62;92.59
43745;BME280;29359;53.048;8.732;2023-01-29T05:18:05;102742.78;;;1.65;92.78
43745;BME280;29359;53.048;8.732;2023-01-29T05:20:10;102740.31;;;1.68;92.92
43745;BME280;29359;53.048;8.732;2023-01-29T05:22:15;102745.69;;;1.73;93.01
43745;BME280;29359;53.048;8.732;2023-01-29T05:24:20;102735.41;;;1.76;92.70
43745;BME280;29359;53.048;8.732;2023-01-29T05:26:23;102723.41;;;1.79;92.45
43745;BME280;29359;53.048;8.732;2023-01-29T05:28:42;102729.59;;;1.83;92.75
43745;BME280;29359;53.048;8.732;2023-01-29T05:30:49;102745.41;;;1.87;92.86
43745;BME280;29359;53.048;8.732;2023-01-29T05:32:50;102738.59;;;1.91;92.63
43745;BME280;29359;53.048;8.732;2023-01-29T05:34:52;102738.72;;;1.94;92.44
43745;BME280;29359;53.048;8.732;2023-01-29T05:36:54;102748.34;;;1.97;92.30
43745;BME280;29359;53.048;8.732;2023-01-29T05:38:55;102751.06;;;2.00;92.17
43745;BME280;29359;53.048;8.732;2023-01-29T05:40:58;102739.88;;;2.02;92.43
43745;BME280;29359;53.048;8.732;2023-01-29T05:42:59;102739.09;;;2.05;92.55
43745;BME280;29359;53.048;8.732;2023-01-29T05:45:01;102746.97;;;2.06;92.82
43745;BME280;29359;53.048;8.732;2023-01-29T05:47:02;102744.31;;;2.05;93.17
43745;BME280;29359;53.048;8.732;2023-01-29T05:49:04;102736.56;;;2.06;93.46
43745;BME280;29359;53.048;8.732;2023-01-29T05:51:06;102740.03;;;2.07;94.44
43745;BME280;29359;53.048;8.732;2023-01-29T05:53:07;102728.69;;;2.05;94.64
43745;BME280;29359;53.048;8.732;2023-01-29T05:55:09;102717.25;;;2.01;95.24
43745;BME280;29359;53.048;8.732;2023-01-29T05:57:11;102710.22;;;1.99;95.83
43745;BME280;29359;53.048;8.732;2023-01-29T05:59:14;102718.88;;;1.98;96.64
43745;BME280;29359;53.048;8.732;2023-01-29T06:01:18;102729.28;;;1.98;97.04
43745;BME280;29359;53.048;8.732;2023-01-29T06:03:20;102722.34;;;1.98;97.02
43745;BME280;29359;53.048;8.732;2023-01-29T06:05:21;102719.75;;;1.98;97.10
43745;BME280;29359;53.048;8.732;2023-01-29T06:07:23;102703.19;;;1.96;97.88
43745;BME280;29359;53.048;8.732;2023-01-29T06:09:24;102718.81;;;1.96;97.94
43745;BME280;29359;53.048;8.732;2023-01-29T06:11:26;102724.03;;;1.96;98.48
43745;BME280;29359;53.048;8.732;2023-01-29T06:13:27;102711.94;;;1.98;98.42
43745;BME280;29359;53.048;8.732;2023-01-29T06:15:29;102725.78;;;1.97;98.74
43745;BME280;29359;53.048;8.732;2023-01-29T06:17:30;102722.34;;;1.98;98.86
43745;BME280;29359;53.048;8.732;2023-01-29T06:19:32;102723.31;;;2.00;99.38
43745;BME280;29359;53.048;8.732;2023-01-29T06:21:33;102713.00;;;2.03;99.08
43745;BME280;29359;53.048;8.732;2023-01-29T06:23:35;102719.97;;;2.04;99.42
43745;BME280;29359;53.048;8.732;2023-01-29T06:25:36;102716.53;;;2.05;99.46
43745;BME280;29359;53.048;8.732;2023-01-29T06:27:38;102707.84;;;2.05;99.36
43745;BME280;29359;53.048;8.732;2023-01-29T06:29:39;102706.06;;;2.04;99.37
43745;BME280;29359;53.048;8.732;2023-01-29T06:31:41;102714.78;;;2.04;99.53
43745;BME280;29359;53.048;8.732;2023-01-29T06:33:43;102719.97;;;2.04;99.84
43745;BME280;29359;53.048;8.732;2023-01-29T06:35:44;102732.13;;;2.04;100.00
43745;BME280;29359;53.048;8.732;2023-01-29T06:37:46;102726.06;;;2.05;99.99
43745;BME280;29359;53.048;8.732;2023-01-29T06:39:47;102720.88;;;2.05;99.81
43745;BME280;29359;53.048;8.732;2023-01-29T06:41:49;102711.34;;;2.05;100.00
43745;BME280;29359;53.048;8.732;2023-01-29T06:43:51;102701.75;;;2.04;99.71
43745;BME280;29359;53.048;8.732;2023-01-29T06:45:55;102688.66;;;2.03;100.00
43745;BME280;29359;53.048;8.732;2023-01-29T06:47:57;102699.97;;;2.03;100.00
43745;BME280;29359;53.048;8.732;2023-01-29T06:50:02;102698.13;;;2.01;100.00
43745;BME280;29359;53.048;8.732;2023-01-29T06:52:04;102698.97;;;2.00;100.00
43745;BME280;29359;53.048;8.732;2023-01-29T06:54:05;102703.53;;;2.05;100.00
43745;BME280;29359;53.048;8.732;2023-01-29T06:56:08;102700.84;;;2.04;100.00
43745;BME280;29359;53.048;8.732;2023-01-29T06:58:11;102702.69;;;2.06;100.00
43745;BME280;29359;53.048;8.732;2023-01-29T07:00:14;102703.63;;;2.08;99.99
43745;BME280;29359;53.048;8.732;2023-01-29T07:02:16;102698.41;;;2.08;99.97
43745;BME280;29359;53.048;8.732;2023-01-29T07:04:17;102687.16;;;2.09;100.00
43745;BME280;29359;53.048;8.732;2023-01-29T07:06:19;102693.31;;;2.11;100.00
43745;BME280;29359;53.048;8.732;2023-01-29T07:08:20;102695.88;;;2.10;100.00
43745;BME280;29359;53.048;8.732;2023-01-29T07:10:23;102699.34;;;2.10;99.89
43745;BME280;29359;53.048;8.732;2023-01-29T07:12:24;102700.25;;;2.11;100.00
43745;BME280;29359;53.048;8.732;2023-01-29T07:14:26;102690.72;;;2.11;100.00
43745;BME280;29359;53.048;8.732;2023-01-29T07:16:27;102680.34;;;2.13;100.00
43745;BME280;29359;53.048;8.732;2023-01-29T07:18:29;102689.09;;;2.15;99.71
43745;BME280;29359;53.048;8.732;2023-01-29T07:20:31;102683.00;;;2.14;99.91
43745;BME280;29359;53.048;8.732;2023-01-29T07:22:32;102678.69;;;2.15;99.81
43745;BME280;29359;53.048;8.732;2023-01-29T07:24:34;102679.56;;;2.15;99.91
43745;BME280;29359;53.048;8.732;2023-01-29T07:26:35;102686.53;;;2.16;99.47
43745;BME280;29359;53.048;8.732;2023-01-29T07:28:38;102683.06;;;2.16;99.92
43745;BME280;29359;53.048;8.732;2023-01-29T07:30:39;102690.97;;;2.17;99.66
43745;BME280;29359;53.048;8.732;2023-01-29T07:32:41;102689.25;;;2.18;99.58
43745;BME280;29359;53.048;8.732;2023-01-29T07:34:43;102687.53;;;2.18;99.62
43745;BME280;29359;53.048;8.732;2023-01-29T07:36:44;102679.75;;;2.20;99.46
43745;BME280;29359;53.048;8.732;2023-01-29T07:38:49;102678.09;;;2.22;98.87
43745;BME280;29359;53.048;8.732;2023-01-29T07:40:52;102674.53;;;2.20;98.94
43745;BME280;29359;53.048;8.732;2023-01-29T07:43:00;102681.47;;;2.19;99.16
43745;BME280;29359;53.048;8.732;2023-01-29T07:45:03;102673.66;;;2.19;99.03
43745;BME280;29359;53.048;8.732;2023-01-29T07:47:04;102674.59;;;2.22;99.22
43745;BME280;29359;53.048;8.732;2023-01-29T07:49:06;102676.38;;;2.23;98.69
43745;BME280;29359;53.048;8.732;2023-01-29T07:51:07;102679.03;;;2.24;99.13
43745;BME280;29359;53.048;8.732;2023-01-29T07:53:13;102666.06;;;2.26;98.64
43745;BME280;29359;53.048;8.732;2023-01-29T07:55:15;102678.16;;;2.24;98.68
43745;BME280;29359;53.048;8.732;2023-01-29T07:57:17;102667.72;;;2.24;98.58
43745;BME280;29359;53.048;8.732;2023-01-29T07:59:18;102657.34;;;2.25;98.49
43745;BME280;29359;53.048;8.732;2023-01-29T08:01:20;102659.22;;;2.29;98.02
43745;BME280;29359;53.048;8.732;2023-01-29T08:03:21;102653.97;;;2.28;98.08
43745;BME280;29359;53.048;8.732;2023-01-29T08:05:23;102654.91;;;2.30;97.94
43745;BME280;29359;53.048;8.732;2023-01-29T08:07:24;102654.13;;;2.32;97.88
43745;BME280;29359;53.048;8.732;2023-01-29T08:09:26;102668.03;;;2.33;97.58
43745;BME280;29359;53.048;8.732;2023-01-29T08:11:27;102661.22;;;2.36;97.60
43745;BME280;29359;53.048;8.732;2023-01-29T08:13:29;102667.38;;;2.38;97.39
43745;BME280;29359;53.048;8.732;2023-01-29T08:15:31;102662.16;;;2.38;96.76
43745;BME280;29359;53.048;8.732;2023-01-29T08:17:33;102654.38;;;2.40;96.83
43745;BME280;29359;53.048;8.732;2023-01-29T08:19:35;102645.69;;;2.39;96.76
43745;BME280;29359;53.048;8.732;2023-01-29T08:21:36;102647.50;;;2.42;96.40
43745;BME280;29359;53.048;8.732;2023-01-29T08:23:37;102646.66;;;2.43;96.09
43745;BME280;29359;53.048;8.732;2023-01-29T08:25:39;102652.81;;;2.45;95.66
43745;BME280;29359;53.048;8.732;2023-01-29T08:27:41;102645.94;;;2.47;95.89
43745;BME280;29359;53.048;8.732;2023-01-29T08:29:42;102643.44;;;2.50;95.31
43745;BME280;29359;53.048;8.732;2023-01-29T08:31:44;102639.06;;;2.49;94.94
43745;BME280;29359;53.048;8.732;2023-01-29T08:33:46;102638.38;;;2.55;94.94
43745;BME280;29359;53.048;8.732;2023-01-29T08:35:50;102633.16;;;2.55;94.28
43745;BME280;29359;53.048;8.732;2023-01-29T08:37:56;102634.03;;;2.55;94.42
43745;BME280;29359;53.048;8.732;2023-01-29T08:39:59;102632.38;;;2.57;94.09
43745;BME280;29359;53.048;8.732;2023-01-29T08:42:01;102648.16;;;2.60;93.89
43745;BME280;29359;53.048;8.732;2023-01-29T08:44:03;102646.44;;;2.61;93.14
43745;BME280;29359;53.048;8.732;2023-01-29T08:46:06;102646.44;;;2.61;92.76
43745;BME280;29359;53.048;8.732;2023-01-29T08:48:08;102648.25;;;2.63;92.56
43745;BME280;29359;53.048;8.732;2023-01-29T08:50:10;102651.00;;;2.68;92.68
43745;BME280;29359;53.048;8.732;2023-01-29T08:52:12;102648.41;;;2.68;92.51
43745;BME280;29359;53.048;8.732;2023-01-29T08:54:13;102648.44;;;2.69;92.12
43745;BME280;29359;53.048;8.732;2023-01-29T08:56:15;102646.78;;;2.71;91.87
43745;BME280;29359;53.048;8.732;2023-01-29T08:58:17;102639.84;;;2.72;91.71
43745;BME280;29359;53.048;8.732;2023-01-29T09:00:18;102640.72;;;2.72;91.35
43745;BME280;29359;53.048;8.732;2023-01-29T09:02:20;102640.78;;;2.74;91.19
43745;BME280;29359;53.048;8.732;2023-01-29T09:04:22;102636.44;;;2.74;90.80
43745;BME280;29359;53.048;8.732;2023-01-29T09:06:23;102628.56;;;2.73;90.60
43745;BME280;29359;53.048;8.732;2023-01-29T09:08:25;102631.28;;;2.76;90.43
43745;BME280;29359;53.048;8.732;2023-01-29T09:10:26;102614.84;;;2.78;89.91
43745;BME280;29359;53.048;8.732;2023-01-29T09:12:28;102622.66;;;2.78;89.81
43745;BME280;29359;53.048;8.732;2023-01-29T09:14:29;102624.38;;;2.78;89.52
43745;BME280;29359;53.048;8.732;2023-01-29T09:16:31;102613.13;;;2.79;89.33
43745;BME280;29359;53.048;8.732;2023-01-29T09:18:32;102615.66;;;2.77;88.98
43745;BME280;29359;53.048;8.732;2023-01-29T09:20:34;102611.28;;;2.76;89.51
43745;BME280;29359;53.048;8.732;2023-01-29T09:22:38;102605.25;;;2.77;89.59
43745;BME280;29359;53.048;8.732;2023-01-29T09:24:39;102598.44;;;2.82;89.23
43745;BME280;29359;53.048;8.732;2023-01-29T09:26:41;102589.78;;;2.83;89.04
43745;BME280;29359;53.048;8.732;2023-01-29T09:28:42;102584.56;;;2.83;88.82
43745;BME280;29359;53.048;8.732;2023-01-29T09:30:44;102589.03;;;2.88;89.28
43745;BME280;29359;53.048;8.732;2023-01-29T09:32:46;102590.81;;;2.89;88.71
43745;BME280;29359;53.048;8.732;2023-01-29T09:34:55;102592.63;;;2.91;87.88
43745;BME280;29359;53.048;8.732;2023-01-29T09:36:56;102590.84;;;2.90;88.20
43745;BME280;29359;53.048;8.732;2023-01-29T09:38:58;102594.41;;;2.92;88.17
43745;BME280;29359;53.048;8.732;2023-01-29T09:43:19;102589.28;;;2.95;88.16
43745;BME280;29359;53.048;8.732;2023-01-29T09:45:24;102587.53;;;2.96;87.89
43745;BME280;29359;53.048;8.732;2023-01-29T09:47:27;102587.59;;;2.97;87.96
43745;BME280;29359;53.048;8.732;2023-01-29T09:49:33;102587.59;;;2.97;87.83
43745;BME280;29359;53.048;8.732;2023-01-29T09:51:39;102591.94;;;2.97;88.13
43745;BME280;29359;53.048;8.732;2023-01-29T09:53:47;102588.53;;;2.99;87.71
43745;BME280;29359;53.048;8.732;2023-01-29T09:55:59;102592.03;;;3.00;87.37
43745;BME280;29359;53.048;8.732;2023-01-29T09:58:39;102586.91;;;3.03;87.49
43745;BME280;29359;53.048;8.732;2023-01-29T10:00:50;102585.25;;;3.05;87.84
43745;BME280;29359;53.048;8.732;2023-01-29T10:05:54;102573.13;;;3.07;87.45
43745;BME280;29359;53.048;8.732;2023-01-29T10:19:47;102550.06;;;3.21;86.39
43745;BME280;29359;53.048;8.732;2023-01-29T10:22:27;102545.75;;;3.23;86.61
43745;BME280;29359;53.048;8.732;2023-01-29T10:24:41;102547.50;;;3.22;86.23
43745;BME280;29359;53.048;8.732;2023-01-29T10:26:50;102547.56;;;3.25;86.50
43745;BME280;29359;53.048;8.732;2023-01-29T10:28:54;102552.84;;;3.27;86.01
43745;BME280;29359;53.048;8.732;2023-01-29T10:31:01;102546.81;;;3.29;86.42
43745;BME280;29359;53.048;8.732;2023-01-29T10:33:11;102541.72;;;3.34;86.35
43745;BME280;29359;53.048;8.732;2023-01-29T10:37:41;102549.69;;;3.38;85.56
43745;BME280;29359;53.048;8.732;2023-01-29T10:39:44;102546.25;;;3.39;85.59
43745;BME280;29359;53.048;8.732;2023-01-29T10:46:54;102536.78;;;3.43;85.23
43745;BME280;29359;53.048;8.732;2023-01-29T10:58:50;102532.19;;;3.66;84.87
43745;BME280;29359;53.048;8.732;2023-01-29T11:00:52;102526.22;;;3.70;84.50
43745;BME280;29359;53.048;8.732;2023-01-29T11:02:54;102522.84;;;3.74;84.43
43745;BME280;29359;53.048;8.732;2023-01-29T11:04:55;102524.63;;;3.75;84.29
43745;BME280;29359;53.048;8.732;2023-01-29T11:06:57;102517.63;;;3.74;84.21
43745;BME280;29359;53.048;8.732;2023-01-29T11:11:33;102500.34;;;3.79;83.97
43745;BME280;29359;53.048;8.732;2023-01-29T11:14:03;102497.84;;;3.84;83.55
43745;BME280;29359;53.048;8.732;2023-01-29T11:16:08;102488.50;;;3.92;83.33
43745;BME280;29359;53.048;8.732;2023-01-29T11:18:13;102490.38;;;3.97;82.86
43745;BME280;29359;53.048;8.732;2023-01-29T11:20:26;102493.97;;;4.01;83.03
43745;BME280;29359;53.048;8.732;2023-01-29T11:22:29;102487.06;;;4.04;82.41
43745;BME280;29359;53.048;8.732;2023-01-29T11:24:30;102488.94;;;4.10;82.54
43745;BME280;29359;53.048;8.732;2023-01-29T11:26:34;102481.22;;;4.15;82.26
43745;BME280;29359;53.048;8.732;2023-01-29T11:28:43;102473.56;;;4.22;83.16
43745;BME280;29359;53.048;8.732;2023-01-29T11:30:45;102467.63;;;4.29;82.77
43745;BME280;29359;53.048;8.732;2023-01-29T11:32:59;102468.75;;;4.39;82.44
43745;BME280;29359;53.048;8.732;2023-01-29T11:35:19;102471.44;;;4.42;81.73
43745;BME280;29359;53.048;8.732;2023-01-29T11:37:21;102464.41;;;4.39;81.74
43745;BME280;29359;53.048;8.732;2023-01-29T11:39:24;102462.56;;;4.35;81.03
43745;BME280;29359;53.048;8.732;2023-01-29T11:41:26;102452.00;;;4.32;81.79
43745;BME280;29359;53.048;8.732;2023-01-29T11:43:29;102446.75;;;4.31;81.47
43745;BME280;29359;53.048;8.732;2023-01-29T11:45:37;102443.31;;;4.33;81.31
43745;BME280;29359;53.048;8.732;2023-01-29T11:47:40;102443.38;;;4.35;82.08
43745;BME280;29359;53.048;8.732;2023-01-29T11:49:51;102434.69;;;4.36;81.51
43745;BME280;29359;53.048;8.732;2023-01-29T11:51:54;102434.81;;;4.40;81.57
43745;BME280;29359;53.048;8.732;2023-01-29T11:53:59;102429.63;;;4.44;81.24
43745;BME280;29359;53.048;8.732;2023-01-29T11:56:26;102421.75;;;4.42;81.18
43745;BME280;29359;53.048;8.732;2023-01-29T11:58:28;102421.88;;;4.48;81.91
43745;BME280;29359;53.048;8.732;2023-01-29T12:00:33;102429.84;;;4.53;81.23
43745;BME280;29359;53.048;8.732;2023-01-29T12:02:40;102415.03;;;4.53;80.97
43745;BME280;29359;53.048;8.732;2023-01-29T12:04:43;102414.19;;;4.54;80.88
43745;BME280;29359;53.048;8.732;2023-01-29T12:06:46;102418.69;;;4.61;80.63
43745;BME280;29359;53.048;8.732;2023-01-29T12:08:55;102409.94;;;4.59;80.86
43745;BME280;29359;53.048;8.732;2023-01-29T12:11:34;102403.88;;;4.62;81.06
43745;BME280;29359;53.048;8.732;2023-01-29T12:13:36;102396.97;;;4.65;80.11
43745;BME280;29359;53.048;8.732;2023-01-29T12:15:40;102390.84;;;4.65;80.72
43745;BME280;29359;53.048;8.732;2023-01-29T12:17:50;102380.38;;;4.63;80.92